KEKN/EKN METAR and TAF weather

Enter ICAO airport designator
Station Type Date Time Source
KEKN METAR 2020/04/08 20:51 UTC NOAA

KEKN 082051Z AUTO 29009KT 10SM CLR 21/08 A2969 RMK AO2 SLP052 T02110083 57013


Station Type Date Time Source
KEKN Decoded METAR 2020/04/08 20:51 UTC NOAA

JENNINGS RANDOLPH FIELD, WV, United States (KEKN) 38-53N 079-51W 603M
Apr 08, 2020 - 04:51 PM EDT / 2020.04.08 2051 UTC
Wind: from the WNW (290 degrees) at 10 MPH (9 KT):0
Visibility: 10 mile(s):0
Sky conditions: clear
Temperature: 70.0 F (21.1 C)
Dew Point: 46.9 F (8.3 C)
Relative Humidity: 43%
Pressure (altimeter): 29.69 in. Hg (1005 hPa)
Pressure tendency: 0.04 inches (1.3 hPa) lower than three hours ago
ob: KEKN 082051Z AUTO 29009KT 10SM CLR 21/08 A2969 RMK AO2 SLP052 T02110083 57013
cycle: 21

Station Type Date Time Source
KEKN TAF 2020/04/08 20:10 UTC NOAA

TAF
AMD KEKN 082008Z 0820/0918 32009KT P6SM SCT045
FM090000 32005KT P6SM SCT250
FM090800 21005KT 4SM SHRA VCTS OVC045CB
FM091200 25007KT 4SM -SHRA OVC013
FM091300 27009G22KT 6SM -SHRA OVC005
FM091500 29012G24KT P6SM OVC012

Example: see airport list